Time;durP1;ratioP1;P1;durP2;ratioP2;P2;SDS_P1;SDS_P2;PMS_P1;PMS_P2;Temp;Humidity;BMP_temperature;BMP_pressure;BME280_temperature;BME280_humidity;BME280_pressure;Samples;Min_cycle;Max_cycle;Signal;HPM_P1;HPM_P2
2022/11/23 00:03:04;;;;;;;13.80;9.70;;;;;;;4.55;75.40;99735.75;1777457;81;21154;-77
2022/11/23 00:06:10;;;;;;;10.98;8.08;;;;;;;4.68;74.65;99729.98;1781246;80;21201;-76
2022/11/23 00:09:10;;;;;;;11.30;8.40;;;;;;;4.35;74.97;99741.78;1776619;81;21758;-76
2022/11/23 00:12:03;;;;;;;11.45;8.15;;;;;;;4.44;75.02;99754.94;1756736;80;21153;-76
2022/11/23 00:15:07;;;;;;;12.03;8.18;;;;;;;4.29;74.82;99763.21;1779170;81;21224;-76
2022/11/23 00:18:14;;;;;;;14.15;9.03;;;;;;;4.47;74.28;99757.35;1781145;80;21724;-76
2022/11/23 00:21:21;;;;;;;10.03;7.30;;;;;;;4.51;72.92;99757.87;1774878;81;21681;-76
2022/11/23 00:24:27;;;;;;;10.53;8.00;;;;;;;4.68;72.63;99755.72;1780704;79;21184;-76
2022/11/23 00:27:34;;;;;;;11.68;8.60;;;;;;;4.63;72.53;99756.68;1777351;81;21189;-78
2022/11/23 00:30:40;;;;;;;10.55;8.08;;;;;;;4.80;70.77;99765.35;1781173;80;21197;-76
2022/11/23 00:33:46;;;;;;;11.73;8.35;;;;;;;4.79;70.67;99766.84;1774979;81;21178;-76
2022/11/23 00:36:51;;;;;;;10.90;7.80;;;;;;;4.73;70.95;99783.20;1781310;80;21184;-77
2022/11/23 00:39:57;;;;;;;13.78;9.08;;;;;;;4.41;71.74;99789.07;1777496;81;21205;-78
2022/11/23 00:43:03;;;;;;;14.25;9.13;;;;;;;4.64;70.97;99781.41;1781239;80;21160;-76
2022/11/23 00:46:12;;;;;;;12.78;8.90;;;;;;;4.61;70.03;99777.63;1774818;81;21161;-78
2022/11/23 00:49:11;;;;;;;13.65;8.95;;;;;;;4.94;68.74;99787.48;1781259;79;21220;-76
2022/11/23 00:52:18;;;;;;;13.98;8.98;;;;;;;4.66;68.31;99785.30;1777180;81;21185;-77
2022/11/23 00:55:23;;;;;;;12.75;9.03;;;;;;;4.55;69.31;99777.73;1781229;80;21784;-77
2022/11/23 00:58:29;;;;;;;12.85;8.88;;;;;;;4.53;69.04;99787.03;1774977;81;21137;-76
2022/11/23 01:01:38;;;;;;;15.60;9.78;;;;;;;4.87;68.34;99791.33;1781290;80;21173;-77
2022/11/23 01:04:45;;;;;;;14.05;9.85;;;;;;;4.20;70.79;99793.38;1777671;81;21213;-76
2022/11/23 01:07:53;;;;;;;16.65;10.50;;;;;;;4.39;69.91;99795.66;1758882;80;21165;-76
2022/11/23 01:10:59;;;;;;;14.13;9.83;;;;;;;4.25;70.73;99799.20;1779881;80;21161;-77
2022/11/23 01:14:05;;;;;;;15.83;10.50;;;;;;;4.55;70.43;99797.20;1781283;80;21228;-76
2022/11/23 01:17:12;;;;;;;15.78;10.28;;;;;;;4.73;69.84;99787.27;1776058;81;21160;-78
2022/11/23 01:20:18;;;;;;;16.45;10.80;;;;;;;4.89;69.40;99793.37;1781292;80;21753;-76
2022/11/23 01:23:25;;;;;;;15.68;10.95;;;;;;;5.14;68.61;99794.50;1776765;81;21181;-76
2022/11/23 01:26:30;;;;;;;15.75;10.63;;;;;;;5.17;68.54;99797.39;1783708;80;21192;-78
2022/11/23 01:29:38;;;;;;;16.17;10.70;;;;;;;4.97;69.11;99796.68;1783230;80;21192;-76
2022/11/23 01:32:44;;;;;;;14.93;9.98;;;;;;;4.71;70.13;99809.61;1786855;80;21697;-78
2022/11/23 01:35:49;;;;;;;14.65;9.95;;;;;;;4.62;70.59;99822.70;1805974;79;21161;-77
2022/11/23 01:38:55;;;;;;;17.67;11.20;;;;;;;4.83;70.33;99824.64;1786172;80;21180;-76
2022/11/23 01:42:01;;;;;;;18.42;10.70;;;;;;;5.04;69.77;99827.61;1786824;80;21777;-78
2022/11/23 01:45:35;;;;;;;17.15;10.48;;;;;;;4.70;70.61;99836.33;1805913;79;21636;-76
2022/11/23 01:48:57;;;;;;;14.47;10.78;;;;;;;4.88;70.24;99827.75;1763565;80;21145;-76
2022/11/23 01:52:03;;;;;;;17.25;10.55;;;;;;;4.48;71.65;99836.23;1786896;80;21150;-78
2022/11/23 01:55:09;;;;;;;16.57;9.83;;;;;;;4.49;72.08;99833.02;1805755;79;21217;-76
2022/11/23 01:58:13;;;;;;;14.07;9.48;;;;;;;4.55;72.25;99828.35;1786883;80;21741;-76
2022/11/23 02:01:19;;;;;;;15.85;10.08;;;;;;;4.77;71.69;99829.32;1786774;80;21204;-77
2022/11/23 02:04:41;;;;;;;13.93;9.30;;;;;;;5.07;70.80;99834.91;1785144;80;21804;-76
2022/11/23 02:07:46;;;;;;;13.98;9.68;;;;;;;5.10;70.57;99835.97;1805833;79;21137;-76
2022/11/23 02:10:53;;;;;;;16.32;9.28;;;;;;;5.19;70.40;99838.27;1786729;80;21164;-77
2022/11/23 02:13:59;;;;;;;13.72;9.38;;;;;;;4.55;72.58;99837.33;1786485;80;21180;-78
2022/11/23 02:17:07;;;;;;;15.15;9.70;;;;;;;4.35;73.49;99828.94;1786808;80;21156;-77
2022/11/23 02:20:15;;;;;;;13.55;9.63;;;;;;;4.51;73.77;99830.50;1786846;80;21200;-76
2022/11/23 02:23:38;;;;;;;14.70;10.30;;;;;;;4.51;73.74;99829.65;1786827;80;21172;-77
2022/11/23 02:26:44;;;;;;;14.20;10.13;;;;;;;4.58;73.73;99823.50;1784732;80;21191;-78
2022/11/23 02:29:51;;;;;;;12.98;9.63;;;;;;;4.43;74.35;99829.56;1786834;80;21196;-78
2022/11/23 02:32:58;;;;;;;14.65;9.60;;;;;;;4.58;74.00;99833.48;1786735;80;21143;-77
2022/11/23 02:36:05;;;;;;;14.05;9.00;;;;;;;4.80;73.43;99843.08;1778276;80;21145;-77
2022/11/23 02:39:39;;;;;;;15.15;8.95;;;;;;;4.59;74.03;99847.38;1786668;79;21220;-78
2022/11/23 02:42:46;;;;;;;15.48;9.53;;;;;;;5.26;72.41;99841.20;1786810;80;21181;-77
2022/11/23 02:45:58;;;;;;;12.07;9.03;;;;;;;5.30;71.95;99841.25;1786737;80;21200;-76
2022/11/23 02:49:03;;;;;;;14.18;9.10;;;;;;;5.11;71.83;99847.16;1786695;80;21192;-76
2022/11/23 02:52:09;;;;;;;13.62;10.05;;;;;;;5.64;71.06;99850.89;1785218;80;21165;-76
2022/11/23 02:55:15;;;;;;;12.60;8.30;;;;;;;5.18;71.49;99856.91;1783123;80;21192;-76
2022/11/23 02:58:23;;;;;;;12.10;8.33;;;;;;;5.26;71.79;99865.10;1786651;80;21173;-78
2022/11/23 03:01:29;;;;;;;12.45;8.90;;;;;;;5.42;71.33;99874.45;1780644;80;21138;-78
2022/11/23 03:04:37;;;;;;;11.88;8.70;;;;;;;5.71;70.64;99892.70;1785389;79;21180;-78
2022/11/23 03:07:44;;;;;;;11.90;8.60;;;;;;;5.74;70.23;99900.54;1783030;80;21172;-77
2022/11/23 03:10:52;;;;;;;14.95;10.28;;;;;;;5.29;71.92;99907.35;1785299;80;21199;-76
2022/11/23 03:13:58;;;;;;;13.10;9.60;;;;;;;5.35;72.12;99913.01;1784325;80;22082;-77
2022/11/23 03:17:06;;;;;;;12.28;9.20;;;;;;;5.85;70.49;99916.58;1786595;80;21160;-77
2022/11/23 03:20:07;;;;;;;11.88;8.40;;;;;;;5.54;70.63;99922.88;1785737;80;21200;-78
2022/11/23 03:23:13;;;;;;;12.73;9.00;;;;;;;5.58;71.02;99928.86;1786734;80;21746;-77
2022/11/23 03:26:19;;;;;;;16.77;10.90;;;;;;;5.82;70.57;99939.95;1786734;80;21750;-78
2022/11/23 03:29:29;;;;;;;14.47;9.20;;;;;;;5.76;70.67;99941.09;1784850;80;21212;-76
2022/11/23 03:32:36;;;;;;;14.58;9.80;;;;;;;6.00;69.63;99940.49;1781189;80;21156;-77
2022/11/23 03:35:42;;;;;;;14.45;9.95;;;;;;;6.03;69.30;99939.69;1803011;79;21169;-77
2022/11/23 03:38:50;;;;;;;11.90;8.53;;;;;;;6.04;68.97;99941.89;1781991;80;21232;-77
2022/11/23 03:42:13;;;;;;;13.03;8.45;;;;;;;6.11;68.56;99947.87;1782024;80;21180;-78
2022/11/23 03:45:18;;;;;;;14.87;9.55;;;;;;;6.14;68.42;99957.59;1780294;80;21204;-76
2022/11/23 03:48:24;;;;;;;14.45;9.78;;;;;;;5.91;69.21;99954.45;1781177;80;21149;-76
2022/11/23 03:51:29;;;;;;;17.30;10.18;;;;;;;6.05;68.97;99956.66;1781244;80;21152;-77
2022/11/23 03:54:36;;;;;;;12.90;9.28;;;;;;;6.21;68.96;99948.30;1779701;80;21196;-78
2022/11/23 03:57:43;;;;;;;15.30;10.08;;;;;;;6.20;68.69;99968.33;1802716;79;21192;-77
2022/11/23 04:00:48;;;;;;;19.57;9.20;;;;;;;5.84;69.70;99971.88;1781158;80;21730;-76
2022/11/23 04:03:55;;;;;;;13.05;9.63;;;;;;;5.70;69.96;99975.12;1781269;80;21193;-76
2022/11/23 04:07:04;;;;;;;13.53;9.38;;;;;;;5.61;70.75;99980.11;1757505;80;21235;-76
2022/11/23 04:10:12;;;;;;;14.33;9.65;;;;;;;6.08;69.99;99975.37;1781136;80;21217;-76
2022/11/23 04:13:24;;;;;;;14.20;10.15;;;;;;;6.10;69.06;99981.48;1780885;80;21626;-76
2022/11/23 04:16:29;;;;;;;14.68;10.32;;;;;;;5.92;69.20;99974.34;1777405;81;21196;-76
2022/11/23 04:19:35;;;;;;;15.05;10.18;;;;;;;5.87;69.88;99969.34;1781366;80;21240;-78
2022/11/23 04:22:36;;;;;;;17.65;11.40;;;;;;;6.02;69.47;99971.05;1777277;81;21165;-78
2022/11/23 04:25:42;;;;;;;15.50;10.48;;;;;;;5.94;69.49;99973.20;1779641;80;21177;-76
2022/11/23 04:28:49;;;;;;;15.23;10.70;;;;;;;6.03;69.37;99967.34;1775502;80;21701;-77
2022/11/23 04:31:54;;;;;;;17.80;11.43;;;;;;;5.94;70.03;99966.92;1781076;80;21157;-76
2022/11/23 04:35:01;;;;;;;17.57;10.98;;;;;;;5.83;70.40;99963.40;1776400;81;21236;-78
2022/11/23 04:38:08;;;;;;;16.85;10.50;;;;;;;6.03;69.87;99964.13;1781097;80;21157;-78
2022/11/23 04:41:15;;;;;;;16.20;10.93;;;;;;;6.29;69.07;99957.38;1776980;81;21241;-76
2022/11/23 04:44:14;;;;;;;14.18;10.48;;;;;;;6.12;69.44;99956.91;1752424;80;21188;-78
2022/11/23 04:47:07;;;;;;;16.12;10.50;;;;;;;6.29;68.74;99960.59;1777382;81;21232;-76
2022/11/23 04:49:54;;;;;;;17.57;11.70;;;;;;;6.03;69.56;99968.70;1780115;80;21245;-78
2022/11/23 04:53:00;;;;;;;17.32;10.98;;;;;;;6.03;69.11;99977.70;1777339;81;21161;-78
2022/11/23 04:56:07;;;;;;;17.67;11.03;;;;;;;6.42;68.01;99975.98;1779813;80;21239;-78
2022/11/23 04:59:14;;;;;;;16.45;11.40;;;;;;;6.35;68.06;99979.85;1775641;81;21239;-76
2022/11/23 05:02:23;;;;;;;17.48;11.60;;;;;;;6.55;67.70;99987.81;1779593;80;21161;-78
2022/11/23 05:05:35;;;;;;;16.90;11.03;;;;;;;6.79;66.57;99989.85;1776025;81;21189;-78
2022/11/23 05:08:42;;;;;;;18.62;11.48;;;;;;;5.84;69.49;100003.09;1781204;80;21640;-77
2022/11/23 05:12:01;;;;;;;;;;;;;;;5.82;69.91;99998.81;1779985;81;21212;-78
2022/11/23 05:15:06;;;;;;;17.30;11.73;;;;;;;5.84;69.86;99996.31;1759625;81;20178;-76
2022/11/23 05:18:13;;;;;;;15.75;11.18;;;;;;;5.82;69.32;99996.95;1784795;80;21268;-76
2022/11/23 05:21:18;;;;;;;19.95;12.63;;;;;;;6.77;66.69;100000.86;1781220;80;21698;-78
2022/11/23 05:24:24;;;;;;;16.73;12.33;;;;;;;6.73;66.76;100001.34;1777412;81;21177;-78
2022/11/23 05:27:32;;;;;;;17.45;12.73;;;;;;;7.41;64.62;100012.30;1781271;80;21184;-77
2022/11/23 05:30:38;;;;;;;17.67;12.05;;;;;;;6.11;68.67;100013.05;1779574;80;21228;-77
2022/11/23 05:33:45;;;;;;;18.67;12.45;;;;;;;6.07;69.36;100015.75;1784563;80;21227;-76
2022/11/23 05:36:52;;;;;;;16.90;11.75;;;;;;;6.61;67.52;100015.70;1789135;80;21161;-78
2022/11/23 05:39:59;;;;;;;19.95;13.25;;;;;;;6.19;68.72;100015.52;1784515;80;21196;-77
2022/11/23 05:43:06;;;;;;;19.65;13.28;;;;;;;5.42;70.64;100023.13;1788912;80;21232;-78
2022/11/23 05:46:11;;;;;;;21.93;14.55;;;;;;;5.75;70.10;100024.37;1784599;80;21672;-77
2022/11/23 05:49:17;;;;;;;23.73;14.13;;;;;;;6.04;68.92;100024.20;1788989;80;21192;-77
2022/11/23 05:52:23;;;;;;;18.82;12.47;;;;;;;5.35;71.12;100017.42;1784434;80;21713;-77
2022/11/23 05:55:28;;;;;;;19.67;12.68;;;;;;;5.79;70.30;100017.63;1788988;80;21251;-78
2022/11/23 05:58:33;;;;;;;24.82;14.28;;;;;;;6.02;70.13;100019.91;1784350;80;21192;-76
2022/11/23 06:01:39;;;;;;;19.40;13.38;;;;;;;6.59;68.76;100011.80;1788834;80;21157;-77
2022/11/23 06:04:47;;;;;;;22.70;14.47;;;;;;;5.94;70.31;100004.41;1782062;80;22177;-78
2022/11/23 06:07:54;;;;;;;18.75;12.35;;;;;;;6.26;69.86;100013.89;1793196;80;21148;-78
2022/11/23 06:11:02;;;;;;;25.77;14.65;;;;;;;6.37;69.59;100009.06;1768749;79;21137;-78
2022/11/23 06:14:08;;;;;;;17.90;13.25;;;;;;;6.25;69.16;100013.02;1797157;78;21175;-76
2022/11/23 06:17:12;;;;;;;22.48;14.47;;;;;;;6.69;68.23;100013.06;1772881;79;21167;-76
2022/11/23 06:20:20;;;;;;;24.43;16.55;;;;;;;6.22;69.31;100016.57;1785785;78;22201;-77
2022/11/23 06:23:27;;;;;;;22.82;15.58;;;;;;;6.26;69.10;100016.11;1777403;78;21151;-79
2022/11/23 06:26:32;;;;;;;24.23;15.65;;;;;;;6.42;68.58;100011.81;1785844;78;21202;-79
2022/11/23 06:29:38;;;;;;;23.45;13.93;;;;;;;6.35;68.44;100012.45;1770255;79;21167;-79
2022/11/23 06:32:55;;;;;;;23.10;15.75;;;;;;;6.66;68.36;100009.29;1746731;81;21414;-77
2022/11/23 06:36:09;;;;;;;;;;;;;;;6.36;68.85;100014.16;1748852;80;21164;-78
2022/11/23 06:39:15;;;;;;;22.58;13.93;;;;;;;6.24;69.25;100018.61;1727436;80;61478;-79
2022/11/23 06:42:21;;;;;;;20.48;14.00;;;;;;;6.04;70.02;100009.27;1738873;81;21192;-79
2022/11/23 06:45:28;;;;;;;21.82;14.40;;;;;;;6.11;70.39;100008.12;1722639;81;21246;-77
2022/11/23 06:48:37;;;;;;;20.62;15.10;;;;;;;6.32;70.00;100009.19;1706040;84;21744;-76
2022/11/23 06:51:43;;;;;;;25.48;15.55;;;;;;;6.45;69.30;100015.59;1720237;81;21207;-77
2022/11/23 06:54:49;;;;;;;25.00;15.48;;;;;;;6.36;69.32;100016.87;1697509;84;21211;-76
2022/11/23 06:57:49;;;;;;;22.65;14.65;;;;;;;6.18;70.44;100014.66;1707847;83;21207;-76
2022/11/23 07:00:53;;;;;;;24.32;15.45;;;;;;;6.04;70.80;100025.55;1721105;81;21226;-77
2022/11/23 07:04:02;;;;;;;29.70;16.20;;;;;;;6.24;69.72;100028.13;1729600;80;21230;-76
2022/11/23 07:07:10;;;;;;;24.20;16.57;;;;;;;6.63;67.48;100024.54;1747126;80;21191;-76
2022/11/23 07:10:18;;;;;;;26.35;16.75;;;;;;;7.11;65.40;100017.76;1734338;82;21218;-79
2022/11/23 07:13:26;;;;;;;25.25;16.70;;;;;;;6.62;67.50;100018.77;1762643;80;21161;-78
2022/11/23 07:16:33;;;;;;;21.23;15.75;;;;;;;7.18;65.31;100016.08;1742305;80;21650;-77
2022/11/23 07:19:41;;;;;;;24.10;17.30;;;;;;;6.57;66.15;100026.03;1728427;81;21762;-77
2022/11/23 07:22:47;;;;;;;25.82;16.35;;;;;;;7.06;65.71;100033.70;1748147;80;21536;-76
2022/11/23 07:25:54;;;;;;;24.15;16.23;;;;;;;6.73;66.55;100018.53;1715173;83;21164;-76
2022/11/23 10:24:09;;;;;;;31.62;21.02;;;;;;;4.78;90.23;99971.08;1854978;76;22236;-76
2022/11/23 10:27:26;;;;;;;25.95;18.02;;;;;;;4.54;89.98;99983.75;1815952;79;21177;-76
2022/11/23 10:30:31;;;;;;;29.90;19.90;;;;;;;4.77;89.22;99972.93;1814572;79;21197;-76
2022/11/23 10:33:59;;;;;;;31.30;20.82;;;;;;;5.27;86.33;99981.20;1814998;79;21169;-76
2022/11/23 10:37:05;;;;;;;34.35;21.60;;;;;;;5.39;86.59;99977.30;1799034;79;21240;-78
2022/11/23 10:40:17;;;;;;;36.98;20.80;;;;;;;5.50;85.95;99969.45;1804395;79;21239;-78
2022/11/23 10:43:30;;;;;;;27.95;20.40;;;;;;;5.43;85.43;99965.66;1793717;79;21217;-76
2022/11/23 10:46:44;;;;;;;28.47;19.95;;;;;;;5.45;85.27;99956.34;1809086;77;21168;-78
2022/11/23 10:50:00;;;;;;;26.00;18.73;;;;;;;5.68;84.91;99953.20;1794273;77;21378;-78
2022/11/23 11:04:45;;;;;;;35.50;22.15;;;;;;;5.67;82.95;99942.01;1619726;87;21709;-77
2022/11/23 11:07:53;;;;;;;32.60;20.05;;;;;;;5.53;83.38;99936.60;1605288;87;21275;-78
2022/11/23 11:11:17;;;;;;;29.57;19.90;;;;;;;5.86;83.25;99941.34;1612510;87;21211;-77
2022/11/23 11:14:26;;;;;;;28.65;19.92;;;;;;;5.89;83.14;99953.27;1602809;88;21260;-77
2022/11/23 11:17:40;;;;;;;29.23;20.50;;;;;;;5.79;83.52;99943.50;1605295;88;21255;-77
2022/11/23 11:20:52;;;;;;;26.68;18.37;;;;;;;5.81;82.74;99923.83;1535356;90;22428;-76
2022/11/23 11:24:09;;;;;;;31.57;19.95;;;;;;;5.93;82.28;99923.11;1581750;89;21398;-76
2022/11/23 11:27:23;;;;;;;27.10;18.67;;;;;;;5.86;81.41;99920.14;1577735;89;21940;-77
2022/11/23 11:30:36;;;;;;;26.82;17.25;;;;;;;6.21;80.17;99928.81;1591909;88;21219;-76
2022/11/23 11:33:49;;;;;;;29.20;18.77;;;;;;;6.37;78.81;99934.35;1600505;89;21305;-76
2022/11/23 11:36:56;;;;;;;25.72;17.70;;;;;;;6.31;79.22;99932.79;1605513;89;21754;-77
2022/11/23 11:40:25;;;;;;;25.75;18.10;;;;;;;6.26;79.36;99937.34;1594540;89;21287;-77
2022/11/23 11:43:50;;;;;;;28.10;18.32;;;;;;;6.30;79.21;99935.13;1593633;87;21786;-76
2022/11/23 11:47:04;;;;;;;25.00;17.85;;;;;;;6.20;79.10;99942.02;1591537;89;21242;-77
2022/11/23 11:50:14;;;;;;;26.70;17.85;;;;;;;6.26;78.67;99950.06;1587436;88;21239;-76
2022/11/23 11:53:23;;;;;;;26.00;17.92;;;;;;;6.46;78.13;99955.65;1612898;86;21198;-77
2022/11/23 11:56:57;;;;;;;25.80;17.20;;;;;;;6.61;77.97;99955.92;1611524;86;21203;-76
2022/11/23 12:00:04;;;;;;;22.90;17.02;;;;;;;6.57;78.45;99957.25;1637893;85;21201;-77
2022/11/23 12:03:21;;;;;;;27.62;18.73;;;;;;;6.39;77.61;99960.84;1656327;85;21215;-76
2022/11/23 12:06:41;;;;;;;29.35;18.42;;;;;;;6.55;76.83;99968.28;1654180;85;21263;-78
2022/11/23 12:09:43;;;;;;;28.25;19.98;;;;;;;6.60;76.42;99969.16;1655480;84;21766;-78
2022/11/23 12:13:04;;;;;;;30.65;19.73;;;;;;;6.38;76.58;99982.23;1660441;85;21267;-76
2022/11/23 12:16:49;;;;;;;28.12;17.75;;;;;;;6.10;77.57;99980.63;1634471;87;22397;-78
2022/11/23 12:20:04;;;;;;;26.70;18.05;;;;;;;5.94;78.74;99989.99;1629183;85;21257;-78
2022/11/23 12:23:15;;;;;;;25.80;19.62;;;;;;;6.12;78.28;99981.34;1639568;85;21810;-78
2022/11/23 12:26:54;;;;;;;33.02;20.23;;;;;;;6.15;78.75;99984.58;1626876;87;21287;-76
2022/11/23 14:07:34;;;;;;;70.78;46.02;;;;;;;4.75;85.20;99984.43;1809084;79;28130;-77
2022/11/23 14:10:39;;;;;;;85.92;44.20;;;;;;;5.34;83.66;99983.18;1807934;79;21722;-75
2022/11/23 14:13:46;;;;;;;75.35;41.40;;;;;;;5.24;83.42;99991.02;1784004;80;21181;-76
2022/11/23 14:16:57;;;;;;;65.78;35.60;;;;;;;4.78;83.77;99990.04;1784293;80;21176;-76
2022/11/23 14:20:33;;;;;;;48.52;31.20;;;;;;;4.85;84.34;99988.47;1783243;80;21255;-75
2022/11/23 14:28:00;;;;;;;53.45;34.25;;;;;;;4.92;83.37;99992.78;1751073;82;21192;-79
2022/11/23 14:31:16;;;;;;;51.35;33.88;;;;;;;5.01;82.81;99999.52;1744999;82;21229;-76
2022/11/23 14:34:43;;;;;;;51.13;33.65;;;;;;;5.22;82.16;100000.67;1752108;82;21185;-76
2022/11/23 14:38:02;;;;;;;47.62;31.48;;;;;;;5.04;82.14;99993.81;1752260;82;21236;-76
2022/11/23 14:41:29;;;;;;;61.70;39.50;;;;;;;5.04;82.28;99984.33;1743541;82;21212;-77
2022/11/23 14:44:36;;;;;;;57.15;40.28;;;;;;;4.91;82.18;99991.08;1753649;82;21200;-76
2022/11/23 14:47:43;;;;;;;55.33;36.68;;;;;;;4.99;81.11;99973.59;1753625;82;21232;-76
2022/11/23 14:50:49;;;;;;;52.70;33.78;;;;;;;4.60;83.43;99965.55;1753108;82;21778;-76
2022/11/23 14:53:58;;;;;;;63.63;37.88;;;;;;;4.53;82.37;99968.51;1753667;82;21342;-76
2022/11/23 14:57:06;;;;;;;58.63;39.00;;;;;;;4.03;84.95;99976.31;1739278;82;21230;-75
2022/11/23 15:00:12;;;;;;;59.67;34.67;;;;;;;4.55;83.43;99980.04;1723131;83;21186;-76
2022/11/23 15:03:29;;;;;;;53.42;36.93;;;;;;;4.68;83.03;99981.94;1723235;83;21809;-75
2022/11/23 15:06:39;;;;;;;54.83;38.42;;;;;;;4.18;84.29;99974.02;1698486;83;21226;-78
2022/11/23 18:07:10;;;;;;;237.45;29.65;;;;;;;6.09;82.51;99937.69;1820547;76;28086;-78
2022/11/23 18:10:18;;;;;;;44.20;26.02;;;;;;;5.45;83.92;99941.93;1781473;79;21196;-77
2022/11/23 18:13:23;;;;;;;91.15;26.15;;;;;;;4.53;87.17;99941.42;1781627;80;21741;-79
2022/11/23 18:16:30;;;;;;;80.47;27.80;;;;;;;4.67;88.39;99936.89;1780841;79;21176;-77
2022/11/23 18:19:35;;;;;;;83.15;27.22;;;;;;;4.38;88.75;99934.27;1781779;80;21141;-77
2022/11/23 18:22:42;;;;;;;40.33;25.65;;;;;;;4.27;91.07;99936.61;1781826;80;21185;-77
2022/11/23 18:25:48;;;;;;;87.80;27.45;;;;;;;4.62;89.44;99936.48;1781381;79;21192;-78
2022/11/23 18:28:53;;;;;;;50.23;28.55;;;;;;;4.16;90.44;99933.22;1781658;80;21143;-78
2022/11/23 18:31:58;;;;;;;64.45;29.70;;;;;;;4.15;92.40;99927.47;1781584;79;21165;-79
2022/11/23 18:35:04;;;;;;;71.97;28.47;;;;;;;4.15;91.90;99932.37;1781575;79;21184;-79
2022/11/23 18:38:08;;;;;;;50.38;29.87;;;;;;;3.90;92.49;99933.80;1781683;80;21153;-78
2022/11/23 18:41:15;;;;;;;103.12;29.23;;;;;;;3.89;93.77;99939.36;1781641;79;21765;-78
2022/11/23 18:44:20;;;;;;;64.70;26.90;;;;;;;4.27;92.54;99932.55;1781850;80;21145;-77
2022/11/23 18:47:27;;;;;;;53.02;29.45;;;;;;;3.88;93.57;99937.16;1781653;80;21149;-79
2022/11/23 18:50:33;;;;;;;89.58;32.40;;;;;;;3.99;93.12;99936.15;1781603;79;21713;-79
2022/11/23 18:53:40;;;;;;;73.97;29.63;;;;;;;3.91;93.79;99932.82;1781655;80;21145;-78
2022/11/23 18:56:46;;;;;;;70.78;30.00;;;;;;;4.16;93.18;99930.02;1780555;79;21737;-79
2022/11/23 18:59:51;;;;;;;80.17;29.75;;;;;;;4.24;93.23;99929.30;1781888;80;21153;-78
2022/11/23 19:03:03;;;;;;;47.17;26.35;;;;;;;4.30;91.83;99936.33;1781648;80;21129;-79
2022/11/23 19:06:10;;;;;;;45.00;26.05;;;;;;;3.99;92.47;99932.94;1782525;79;21724;-77
2022/11/23 19:09:17;;;;;;;49.15;26.95;;;;;;;4.46;91.35;99925.39;1792604;80;21669;-77
2022/11/23 19:12:22;;;;;;;54.53;29.57;;;;;;;4.76;90.07;99926.52;1779013;79;21764;-77
2022/11/23 19:15:27;;;;;;;60.45;30.52;;;;;;;5.09;88.54;99914.75;1792804;78;21775;-79
2022/11/23 19:18:33;;;;;;;54.08;28.52;;;;;;;4.55;88.85;99911.81;1792869;80;21735;-79
2022/11/23 19:21:39;;;;;;;93.25;34.23;;;;;;;4.75;89.42;99923.94;1792870;78;21187;-79
2022/11/23 19:24:46;;;;;;;66.55;32.25;;;;;;;4.49;90.24;99923.75;1791379;79;21755;-77
2022/11/23 19:27:53;;;;;;;54.98;29.57;;;;;;;4.47;90.60;99909.02;1792853;80;21148;-78
2022/11/23 19:30:58;;;;;;;60.55;32.48;;;;;;;4.54;89.99;99913.33;1792382;78;21192;-77
2022/11/23 19:34:09;;;;;;;56.68;32.33;;;;;;;4.64;89.58;99918.21;1792744;80;21171;-78
2022/11/23 19:37:13;;;;;;;50.80;30.65;;;;;;;4.65;89.10;99915.84;1791868;78;21228;-79
2022/11/23 19:40:35;;;;;;;50.25;29.48;;;;;;;4.76;88.80;99917.04;1792895;78;21211;-78
2022/11/23 19:43:42;;;;;;;49.73;29.50;;;;;;;5.22;87.23;99903.52;1792708;80;21223;-78
2022/11/23 19:46:48;;;;;;;53.75;29.12;;;;;;;4.51;89.63;99903.63;1791909;78;21176;-77
2022/11/23 19:49:53;;;;;;;50.80;29.40;;;;;;;4.40;89.38;99907.03;1792800;80;21148;-78
2022/11/23 19:52:59;;;;;;;47.67;27.37;;;;;;;4.53;89.78;99911.13;1791486;80;21179;-78
2022/11/23 19:56:24;;;;;;;47.67;28.23;;;;;;;4.39;90.15;99921.58;1792196;79;21207;-76
2022/11/23 19:59:31;;;;;;;48.20;27.93;;;;;;;4.52;89.37;99926.18;1792753;80;21164;-76
2022/11/23 20:02:37;;;;;;;42.58;26.85;;;;;;;4.87;88.84;99924.97;1791197;79;21731;-79
2022/11/23 20:05:43;;;;;;;47.25;27.52;;;;;;;4.23;91.69;99928.42;1792832;78;21199;-76
2022/11/23 20:08:49;;;;;;;52.20;30.35;;;;;;;4.30;91.32;99922.80;1791274;79;21192;-76
2022/11/23 20:11:54;;;;;;;52.03;30.85;;;;;;;4.18;91.89;99921.73;1792849;78;21187;-76
2022/11/23 20:15:02;;;;;;;45.83;28.98;;;;;;;4.42;92.11;99919.41;1792732;78;21147;-78
2022/11/23 20:18:07;;;;;;;49.70;27.70;;;;;;;4.58;91.28;99914.75;1792991;80;21169;-77
2022/11/23 20:21:13;;;;;;;47.55;26.27;;;;;;;4.59;90.87;99917.80;1792876;78;21179;-76
2022/11/23 20:24:20;;;;;;;46.00;27.17;;;;;;;4.00;92.73;99916.20;1792743;80;21218;-79
2022/11/23 20:27:26;;;;;;;45.52;29.18;;;;;;;4.73;91.88;99906.48;1792409;80;21636;-77
2022/11/23 20:30:31;;;;;;;38.92;24.80;;;;;;;4.61;90.45;99913.08;1793322;79;21195;-78
2022/11/23 20:33:37;;;;;;;44.90;27.32;;;;;;;4.66;90.57;99908.56;1793405;80;21148;-78
2022/11/23 20:36:43;;;;;;;41.77;26.17;;;;;;;4.43;90.65;99899.98;1791644;78;21208;-77
2022/11/23 20:39:49;;;;;;;45.50;27.15;;;;;;;4.08;92.47;99900.10;1792807;80;21164;-76
2022/11/23 20:42:56;;;;;;;45.78;27.37;;;;;;;4.20;92.66;99896.25;1792928;80;21195;-78
2022/11/23 20:46:04;;;;;;;47.15;29.05;;;;;;;4.53;91.57;99885.90;1792243;78;21187;-78
2022/11/23 20:49:10;;;;;;;45.50;26.33;;;;;;;4.69;90.40;99878.48;1779768;80;21215;-76
2022/11/23 20:52:16;;;;;;;43.58;28.57;;;;;;;4.95;88.97;99865.95;1791382;79;21196;-79
2022/11/23 20:55:22;;;;;;;48.38;30.15;;;;;;;4.88;89.28;99862.98;1791307;78;21242;-80
2022/11/23 20:58:29;;;;;;;45.10;28.38;;;;;;;4.77;90.19;99863.19;1791695;80;21172;-78
2022/11/23 21:01:35;;;;;;;42.85;26.25;;;;;;;4.64;90.18;99859.97;1791896;79;21234;-78
2022/11/23 21:04:41;;;;;;;48.35;29.05;;;;;;;4.83;89.30;99863.08;1792705;80;21133;-79
2022/11/23 21:07:46;;;;;;;44.40;27.42;;;;;;;4.91;88.78;99864.55;1792485;80;21713;-78
2022/11/23 21:14:26;;;;;;;45.65;28.55;;;;;;;4.96;88.09;99866.80;1792752;80;21172;-78
2022/11/23 21:17:26;;;;;;;47.35;27.85;;;;;;;5.07;87.92;99870.66;1792833;80;21216;-80
2022/11/23 21:20:31;;;;;;;48.87;30.40;;;;;;;5.26;87.27;99865.10;1792897;78;21164;-78
2022/11/23 21:23:33;;;;;;;51.68;31.12;;;;;;;5.54;86.35;99870.48;1793026;80;21627;-79
2022/11/23 21:26:38;;;;;;;46.15;29.18;;;;;;;5.66;85.96;99876.03;1791785;79;21756;-78
2022/11/23 21:29:45;;;;;;;75.17;56.85;;;;;;;5.29;87.00;99868.88;1791185;80;21169;-76
2022/11/23 21:32:52;;;;;;;71.90;56.08;;;;;;;5.56;86.54;99874.75;1791231;80;21207;-77
2022/11/23 21:35:57;;;;;;;62.30;48.52;;;;;;;5.56;86.18;99882.89;1778510;79;21740;-79
2022/11/23 21:39:02;;;;;;;59.53;42.93;;;;;;;5.63;86.11;99888.55;1791545;80;21805;-79
2022/11/23 21:42:07;;;;;;;75.70;49.00;;;;;;;5.93;84.55;99890.53;1791277;78;21187;-79
2022/11/23 21:45:15;;;;;;;53.80;40.95;;;;;;;5.94;83.86;99880.89;1792795;78;21159;-78
2022/11/23 21:48:20;;;;;;;59.23;43.63;;;;;;;5.87;84.83;99881.98;1792898;80;21150;-78
2022/11/23 21:51:26;;;;;;;57.20;40.25;;;;;;;5.86;84.35;99884.34;1792768;78;21176;-79
2022/11/23 21:54:32;;;;;;;77.30;59.20;;;;;;;5.62;85.46;99894.48;1791694;80;21795;-78
2022/11/23 21:57:40;;;;;;;52.43;38.58;;;;;;;5.43;86.61;99895.98;1791399;79;21156;-78
2022/11/23 22:00:46;;;;;;;68.52;54.90;;;;;;;5.69;85.53;99897.41;1792351;78;21202;-76
2022/11/23 22:03:57;;;;;;;70.85;56.28;;;;;;;5.66;85.31;99885.53;1792664;80;21791;-77
2022/11/23 22:07:03;;;;;;;61.28;43.23;;;;;;;5.41;86.49;99880.38;1792674;78;21184;-79
2022/11/23 22:10:09;;;;;;;63.42;46.37;;;;;;;5.45;87.16;99869.54;1786773;79;21184;-78
2022/11/23 22:13:15;;;;;;;50.08;36.68;;;;;;;6.03;85.32;99869.60;1781484;80;21145;-79
2022/11/23 22:16:31;;;;;;;54.88;41.50;;;;;;;6.17;84.31;99866.31;1781493;79;21184;-78
2022/11/23 22:19:38;;;;;;;75.37;60.33;;;;;;;6.24;84.47;99870.08;1781475;80;21173;-79
2022/11/23 22:22:44;;;;;;;52.55;38.17;;;;;;;5.94;85.13;99862.41;1781299;80;21836;-78
2022/11/23 22:25:50;;;;;;;74.17;57.17;;;;;;;5.85;85.57;99856.86;1780846;79;21188;-78
2022/11/23 22:29:01;;;;;;;58.83;41.08;;;;;;;5.75;86.13;99864.75;1780840;80;21196;-77